createdAt,value
2023-04-13T08:33:22.790Z,2.45
2023-04-13T08:35:58.184Z,2.30
2023-04-13T08:38:28.579Z,2.45
2023-04-13T08:44:13.161Z,2.83
2023-04-13T08:53:30.124Z,1.90
2023-04-13T08:55:59.685Z,1.80
2023-04-13T08:58:29.285Z,1.70
2023-04-13T09:00:58.842Z,1.80
2023-04-13T09:03:28.854Z,1.80
2023-04-13T09:06:01.863Z,1.70
2023-04-13T09:08:36.142Z,1.90
2023-04-13T09:11:05.676Z,1.40
2023-04-13T09:13:35.209Z,1.58
2023-04-13T09:16:05.525Z,1.67
2023-04-13T09:18:35.050Z,1.50
2023-04-13T09:21:04.548Z,1.60
2023-04-13T09:23:36.681Z,1.40
2023-04-13T09:26:09.945Z,1.50
2023-04-13T09:28:49.751Z,1.50
2023-04-13T09:31:20.185Z,1.77
2023-04-13T09:33:50.325Z,1.40
2023-04-13T09:36:20.759Z,1.45
2023-04-13T09:38:57.639Z,1.40
2023-04-13T09:41:34.407Z,1.48
2023-04-13T09:44:04.014Z,1.60
2023-04-13T09:46:33.772Z,1.38
2023-04-13T09:49:06.974Z,1.42
2023-04-13T09:51:39.802Z,1.70
2023-04-13T09:54:11.903Z,1.50
2023-04-13T09:56:48.364Z,1.50
2023-04-13T09:59:18.062Z,1.45
2023-04-13T10:01:47.695Z,1.45
2023-04-13T10:04:17.802Z,1.65
2023-04-13T10:06:48.442Z,1.55
2023-04-13T10:09:21.361Z,1.58
2023-04-13T10:11:53.554Z,1.50
2023-04-13T10:14:26.038Z,1.70
2023-04-13T10:17:05.753Z,1.60
2023-04-13T10:19:36.579Z,1.65
2023-04-13T10:22:08.832Z,1.77
2023-04-13T10:24:41.647Z,1.50
2023-04-13T10:27:16.530Z,1.38
2023-04-13T10:29:46.542Z,1.33
2023-04-13T10:32:23.568Z,1.40
2023-04-13T10:34:53.395Z,1.20
2023-04-13T10:37:23.594Z,1.30
2023-04-13T10:40:06.501Z,1.35
2023-04-13T10:45:21.577Z,1.20
2023-04-13T10:47:51.216Z,1.27
2023-04-13T10:50:22.651Z,1.40
2023-04-13T10:52:59.883Z,1.30
2023-04-13T10:55:32.417Z,1.50
2023-04-13T10:58:02.870Z,1.40
2023-04-13T11:00:45.586Z,1.73
2023-04-13T11:03:17.911Z,1.60
2023-04-13T11:05:47.789Z,1.90
2023-04-13T11:08:21.961Z,1.50
2023-04-13T11:10:58.020Z,1.80
2023-04-13T11:13:29.854Z,1.48
2023-04-13T11:16:05.778Z,1.70
2023-04-13T11:18:35.359Z,1.58
2023-04-13T11:21:08.497Z,1.67
2023-04-13T11:23:38.568Z,1.70
2023-04-13T11:26:11.233Z,1.50
2023-04-13T11:28:42.707Z,1.48
2023-04-13T11:31:12.904Z,1.70
2023-04-13T11:33:44.632Z,1.70
2023-04-13T11:36:14.541Z,1.40
2023-04-13T11:38:45.252Z,1.52
2023-04-13T11:41:17.838Z,1.67
2023-04-13T11:43:48.851Z,1.70
2023-04-13T11:48:55.849Z,1.50
2023-04-13T11:51:25.722Z,1.52
2023-04-13T11:53:55.282Z,1.50
2023-04-13T11:56:27.383Z,1.55
2023-04-13T11:58:57.317Z,1.23
2023-04-13T12:01:32.226Z,1.30
2023-04-13T12:06:40.494Z,1.60
2023-04-13T12:09:13.282Z,1.50
2023-04-13T12:11:51.556Z,1.80
2023-04-13T12:17:04.478Z,1.40
2023-04-13T12:19:43.699Z,1.30
2023-04-13T12:22:14.957Z,1.40
2023-04-13T12:24:45.609Z,1.40
2023-04-13T12:27:19.352Z,1.90
2023-04-13T12:29:49.157Z,1.65
2023-04-13T12:32:18.742Z,1.50
2023-04-13T12:34:49.025Z,1.67
2023-04-13T12:37:18.575Z,1.63
2023-04-13T12:39:48.102Z,1.60
2023-04-13T12:42:20.189Z,1.65
2023-04-13T12:44:49.731Z,2.58
2023-04-13T12:47:19.454Z,3.20
2023-04-13T12:49:49.130Z,2.03
2023-04-13T12:52:18.884Z,1.50
2023-04-13T12:54:48.399Z,1.50
2023-04-13T12:57:20.480Z,1.35
2023-04-13T12:59:50.028Z,1.33
2023-04-13T13:02:20.019Z,1.40
2023-04-13T13:04:50.490Z,1.10
2023-04-13T13:07:21.746Z,1.40
2023-04-13T13:09:51.745Z,1.35
2023-04-13T13:12:23.990Z,1.20
2023-04-13T13:14:53.539Z,1.45
2023-04-13T13:17:23.079Z,1.33
2023-04-13T13:19:52.832Z,1.50
2023-04-13T13:22:22.469Z,1.50
2023-04-13T13:24:52.036Z,1.55
2023-04-13T13:29:57.493Z,1.42
2023-04-13T13:32:29.777Z,1.50
2023-04-13T13:34:59.411Z,1.50
2023-04-13T13:37:29.134Z,1.50
2023-04-13T13:39:58.693Z,1.48
2023-04-13T13:42:44.215Z,1.63
2023-04-13T13:45:20.042Z,1.40
2023-04-13T13:47:51.456Z,1.50
2023-04-13T13:50:21.838Z,1.90
2023-04-13T13:53:02.924Z,1.65
2023-04-13T13:55:33.381Z,1.80
2023-04-13T13:58:05.596Z,1.63
2023-04-13T14:00:35.181Z,1.50
2023-04-13T14:03:04.812Z,1.58
2023-04-13T14:05:34.415Z,1.65
2023-04-13T14:08:04.131Z,1.40
2023-04-13T14:10:34.429Z,1.70
2023-04-13T14:13:06.951Z,1.60
2023-04-13T14:15:36.552Z,1.40
2023-04-13T14:18:09.868Z,1.33
2023-04-13T14:20:41.513Z,1.60
2023-04-13T14:23:12.154Z,3.10
2023-04-13T14:25:41.697Z,2.00
2023-04-13T14:28:14.686Z,2.00
2023-04-13T14:30:45.103Z,1.70
2023-04-13T14:33:16.633Z,1.90
2023-04-13T14:35:46.539Z,1.70
2023-04-13T14:38:16.055Z,1.70
2023-04-13T14:40:45.642Z,1.58
2023-04-13T14:43:17.802Z,1.70
2023-04-13T14:45:47.327Z,1.80
2023-04-13T14:48:17.706Z,1.60
2023-04-13T14:50:47.511Z,1.77
2023-04-13T14:53:17.818Z,1.63
2023-04-13T14:55:47.665Z,1.75
2023-04-13T14:58:19.772Z,1.90
2023-04-13T15:00:49.861Z,1.80
2023-04-13T15:03:19.407Z,1.60
2023-04-13T15:05:50.070Z,1.70
2023-04-13T15:08:19.811Z,1.70
2023-04-13T15:10:49.320Z,1.70
2023-04-13T15:13:21.422Z,1.60
2023-04-13T15:15:52.321Z,1.65
2023-04-13T15:18:22.017Z,1.58
2023-04-13T15:20:51.607Z,2.00
2023-04-13T15:23:21.314Z,1.80
2023-04-13T15:25:50.866Z,1.70
2023-04-13T15:28:23.694Z,1.55
2023-04-13T15:30:53.801Z,1.70
2023-04-13T15:33:23.386Z,1.60
2023-04-13T15:35:54.311Z,1.52
2023-04-13T15:38:23.831Z,2.10
2023-04-13T15:40:53.347Z,1.77
2023-04-13T15:43:25.444Z,1.67
2023-04-13T15:45:54.956Z,1.60
2023-04-13T15:48:24.549Z,1.70
2023-04-13T15:51:00.235Z,2.00
2023-04-13T15:53:29.739Z,1.77
2023-04-13T15:55:59.259Z,1.58
2023-04-13T15:58:31.537Z,1.50
2023-04-13T16:01:03.748Z,1.83
2023-04-13T16:03:33.509Z,1.65
2023-04-13T16:06:03.216Z,1.73
2023-04-13T16:08:32.831Z,1.42
2023-04-13T16:11:02.878Z,1.58
2023-04-13T16:13:48.689Z,1.60
2023-04-13T16:16:19.620Z,1.80
2023-04-13T16:18:49.334Z,1.60
2023-04-13T16:21:20.225Z,1.80
2023-04-13T16:23:49.729Z,1.70
2023-04-13T16:26:20.476Z,1.60
2023-04-13T16:28:53.633Z,1.70
2023-04-13T16:31:23.332Z,1.83
2023-04-13T16:33:53.078Z,1.50
2023-04-13T16:36:23.804Z,1.63
2023-04-13T16:38:53.311Z,1.60
2023-04-13T16:41:23.659Z,1.60
2023-04-13T16:43:55.781Z,1.90
2023-04-13T16:46:25.433Z,1.83
2023-04-13T16:48:54.970Z,1.60
2023-04-13T16:51:25.426Z,1.50
2023-04-13T16:53:54.953Z,1.75
2023-04-13T16:56:24.452Z,1.70
2023-04-13T16:58:56.598Z,1.80
2023-04-13T17:01:28.357Z,2.10
2023-04-13T17:03:58.066Z,1.70
2023-04-13T17:06:27.954Z,1.80
2023-04-13T17:08:57.539Z,1.67
2023-04-13T17:11:27.213Z,2.10
2023-04-13T17:13:59.357Z,2.00
2023-04-13T17:16:29.703Z,2.03
2023-04-13T17:18:59.701Z,1.70
2023-04-13T17:21:30.379Z,1.70
2023-04-13T17:23:59.921Z,2.05
2023-04-13T17:26:29.452Z,1.60
2023-04-13T17:29:02.138Z,2.00
2023-04-13T17:31:31.816Z,1.90
2023-04-13T17:34:01.342Z,1.90
2023-04-13T17:36:31.484Z,1.85
2023-04-13T17:39:02.001Z,2.17
2023-04-13T17:41:31.745Z,2.22
2023-04-13T17:44:03.916Z,2.10
2023-04-13T17:46:33.507Z,2.47
2023-04-13T17:49:03.149Z,2.28
2023-04-13T17:51:34.261Z,2.38
2023-04-13T17:56:37.356Z,2.30
2023-04-13T17:59:09.434Z,2.80
2023-04-13T18:01:38.996Z,2.50
2023-04-13T18:04:09.270Z,2.20
2023-04-13T18:06:39.150Z,2.55
2023-04-13T18:09:09.013Z,2.65
2023-04-13T18:11:38.570Z,2.53
2023-04-13T18:14:12.397Z,3.25
2023-04-13T18:16:42.075Z,3.70
2023-04-13T18:19:11.622Z,3.90
2023-04-13T18:21:41.298Z,3.03
2023-04-13T18:24:11.062Z,2.42
2023-04-13T18:26:41.693Z,2.50
2023-04-13T18:29:13.829Z,2.90
2023-04-13T18:31:43.428Z,2.95
2023-04-13T18:34:15.727Z,2.85
2023-04-13T18:36:45.279Z,2.80
2023-04-13T18:39:14.787Z,2.60
2023-04-13T18:41:44.338Z,3.20
2023-04-13T18:44:16.447Z,2.90
2023-04-13T18:46:46.058Z,3.58
2023-04-13T18:49:16.856Z,2.70
2023-04-13T18:51:46.478Z,3.00
2023-04-13T18:54:16.164Z,2.50
2023-04-13T18:56:45.939Z,2.70
2023-04-13T18:59:18.018Z,2.80
2023-04-13T19:01:48.754Z,2.70
2023-04-13T19:04:18.355Z,3.00
2023-04-13T19:06:47.969Z,2.75
2023-04-13T19:09:17.567Z,2.75
2023-04-13T19:11:47.913Z,2.70
2023-04-13T19:14:20.052Z,2.90
2023-04-13T19:16:52.613Z,3.30
2023-04-13T19:19:22.305Z,2.80
2023-04-13T19:21:55.288Z,2.72
2023-04-13T19:24:25.028Z,2.67
2023-04-13T19:26:56.029Z,2.13
2023-04-13T19:29:30.367Z,2.40
2023-04-13T19:32:00.421Z,2.17
2023-04-13T19:34:30.077Z,2.40
2023-04-13T19:36:59.611Z,2.15
2023-04-13T19:39:29.113Z,2.45
2023-04-13T19:41:58.658Z,2.22
2023-04-13T19:44:30.761Z,2.22
2023-04-13T19:47:00.361Z,2.25
2023-04-13T19:49:29.890Z,2.13
2023-04-13T19:51:59.410Z,2.13
2023-04-13T19:54:28.912Z,2.47
2023-04-13T19:56:58.435Z,2.00
2023-04-13T19:59:30.769Z,2.10
2023-04-13T20:02:00.419Z,2.10
2023-04-13T20:04:30.236Z,2.13
2023-04-13T20:06:59.825Z,2.28
2023-04-13T20:09:29.328Z,1.95
2023-04-13T20:11:58.873Z,1.90
2023-04-13T20:14:30.965Z,2.40
2023-04-13T20:17:00.486Z,1.90
2023-04-13T20:19:30.004Z,2.13
2023-04-13T20:22:02.394Z,2.35
2023-04-13T20:24:31.986Z,2.60
2023-04-13T20:27:01.626Z,2.63
2023-04-13T20:29:33.737Z,2.85
2023-04-13T20:32:03.249Z,3.13
2023-04-13T20:34:34.514Z,3.10
2023-04-13T20:37:04.191Z,2.95
2023-04-13T20:39:33.685Z,2.83
2023-04-13T20:42:05.138Z,2.60
2023-04-13T20:44:38.249Z,2.78
2023-04-13T20:47:07.968Z,2.65
2023-04-13T20:49:37.834Z,2.78
2023-04-13T20:52:07.531Z,3.10
2023-04-13T20:54:37.715Z,3.65
2023-04-13T20:57:07.250Z,2.90
2023-04-13T20:59:40.002Z,2.40
2023-04-13T21:02:10.663Z,2.65
2023-04-13T21:04:40.923Z,3.30
2023-04-13T21:07:11.205Z,3.27
2023-04-13T21:09:41.316Z,2.50
2023-04-13T21:12:10.913Z,2.70
2023-04-13T21:14:43.026Z,2.65
2023-04-13T21:17:14.157Z,2.95
2023-04-13T21:22:12.987Z,3.25
2023-04-13T21:24:42.519Z,5.20
2023-04-13T21:27:12.037Z,4.15
2023-04-13T21:29:44.129Z,4.60
2023-04-13T21:32:13.752Z,3.40
2023-04-13T21:34:43.336Z,2.67
2023-04-13T21:37:12.882Z,2.55
2023-04-13T21:39:42.375Z,2.53
2023-04-13T21:42:11.902Z,2.20
2023-04-13T21:44:44.014Z,2.60
2023-04-13T21:47:13.552Z,2.38
2023-04-13T21:49:43.314Z,1.85
2023-04-13T21:52:12.822Z,2.00
2023-04-13T21:54:42.318Z,2.30
2023-04-13T21:57:12.096Z,2.25
2023-04-13T21:59:44.177Z,2.20
2023-04-13T22:02:13.782Z,2.38
2023-04-13T22:04:43.364Z,2.30
2023-04-13T22:07:12.902Z,2.60
2023-04-13T22:09:42.486Z,2.70
2023-04-13T22:12:14.355Z,2.60
2023-04-13T22:14:46.491Z,2.70
2023-04-13T22:17:16.213Z,2.50
2023-04-13T22:19:45.791Z,2.50
2023-04-13T22:22:15.312Z,2.10
2023-04-13T22:24:45.040Z,2.15
2023-04-13T22:27:14.768Z,2.30
2023-04-13T22:29:47.617Z,2.00
2023-04-13T22:32:17.637Z,2.60
2023-04-13T22:34:47.171Z,2.75
2023-04-13T22:37:17.664Z,2.60
2023-04-13T22:39:47.571Z,2.80
2023-04-13T22:42:17.111Z,2.50
2023-04-13T22:44:49.206Z,2.20
2023-04-13T22:47:18.759Z,2.28
2023-04-13T22:49:48.274Z,2.70
2023-04-13T22:52:20.464Z,2.60
2023-04-13T22:54:50.100Z,2.30
2023-04-13T22:57:19.636Z,2.20
2023-04-13T22:59:51.793Z,2.45
2023-04-13T23:02:21.450Z,2.70
2023-04-13T23:04:51.247Z,2.50
2023-04-13T23:07:20.886Z,2.85
2023-04-13T23:09:50.416Z,2.47
2023-04-13T23:12:19.951Z,2.60
2023-04-13T23:14:52.129Z,2.45
2023-04-13T23:17:21.759Z,2.45
2023-04-13T23:19:51.300Z,2.40
2023-04-13T23:22:20.966Z,2.60
2023-04-13T23:24:50.699Z,2.95
2023-04-13T23:27:21.030Z,2.50
2023-04-13T23:29:54.249Z,2.92
2023-04-13T23:32:24.320Z,2.45
2023-04-13T23:34:54.636Z,2.27
2023-04-13T23:37:24.145Z,2.30
2023-04-13T23:39:53.690Z,2.40
2023-04-13T23:42:23.216Z,2.20
2023-04-13T23:44:55.455Z,2.35
2023-04-13T23:47:24.966Z,2.40
2023-04-13T23:49:55.858Z,2.35
2023-04-13T23:52:25.487Z,2.17
2023-04-13T23:54:54.992Z,2.22
2023-04-13T23:57:24.481Z,2.20
